createdAt,value
2023-02-19T00:00:06.017Z,4.10
2023-02-19T00:03:04.066Z,4.10
2023-02-19T00:05:35.556Z,4.10
2023-02-19T00:08:09.936Z,4.10
2023-02-19T00:10:41.187Z,4.10
2023-02-19T00:13:11.785Z,4.20
2023-02-19T00:15:43.019Z,4.10
2023-02-19T00:18:13.603Z,4.10
2023-02-19T00:20:44.900Z,4.10
2023-02-19T00:23:18.996Z,4.10
2023-02-19T00:25:50.306Z,4.10
2023-02-19T00:28:20.981Z,4.00
2023-02-19T00:30:52.686Z,4.00
2023-02-19T00:33:25.913Z,4.00
2023-02-19T00:35:58.442Z,3.90
2023-02-19T00:38:32.284Z,3.90
2023-02-19T00:41:21.436Z,3.90
2023-02-19T00:43:54.942Z,3.90
2023-02-19T00:46:30.194Z,3.90
2023-02-19T00:49:02.094Z,3.80
2023-02-19T00:51:35.323Z,3.80
2023-02-19T00:54:09.974Z,3.90
2023-02-19T00:56:41.338Z,3.90
2023-02-19T00:59:11.872Z,3.90
2023-02-19T01:01:44.722Z,3.90
2023-02-19T01:04:16.760Z,3.90
2023-02-19T01:06:49.167Z,3.90
2023-02-19T01:09:23.010Z,3.90
2023-02-19T01:11:54.355Z,3.90
2023-02-19T01:14:24.968Z,3.90
2023-02-19T01:16:56.451Z,3.90
2023-02-19T01:19:28.744Z,3.90
2023-02-19T01:22:00.695Z,3.90
2023-02-19T01:24:36.528Z,3.90
2023-02-19T01:27:07.855Z,3.90
2023-02-19T01:29:39.156Z,3.90
2023-02-19T01:32:10.505Z,3.90
2023-02-19T01:34:41.659Z,3.90
2023-02-19T01:37:13.389Z,3.90
2023-02-19T01:39:47.326Z,3.90
2023-02-19T01:42:19.833Z,3.90
2023-02-19T01:45:26.593Z,3.90
2023-02-19T01:48:08.179Z,3.90
2023-02-19T01:50:45.231Z,3.90
2023-02-19T01:53:18.548Z,3.90
2023-02-19T01:55:57.506Z,4.00
2023-02-19T01:58:33.363Z,4.00
2023-02-19T02:01:08.811Z,4.00
2023-02-19T02:03:44.165Z,4.00
2023-02-19T02:06:20.738Z,4.00
2023-02-19T02:09:06.673Z,4.00
2023-02-19T02:11:41.899Z,4.00
2023-02-19T02:14:13.359Z,4.00
2023-02-19T02:16:57.909Z,4.00
2023-02-19T02:20:01.755Z,4.00
2023-02-19T02:22:37.871Z,4.00
2023-02-19T02:25:36.850Z,4.10
2023-02-19T02:28:24.305Z,4.00
2023-02-19T02:31:02.777Z,4.00
2023-02-19T02:33:39.957Z,4.00
2023-02-19T02:36:16.146Z,4.00
2023-02-19T02:38:50.325Z,4.00
2023-02-19T02:41:26.297Z,4.00
2023-02-19T02:43:57.242Z,4.00
2023-02-19T02:46:38.095Z,4.00
2023-02-19T02:49:15.898Z,4.00
2023-02-19T02:51:51.026Z,4.00
2023-02-19T02:54:42.801Z,4.00
2023-02-19T02:57:17.584Z,4.00
2023-02-19T02:59:56.135Z,4.00
2023-02-19T03:02:32.241Z,4.00
2023-02-19T03:05:21.348Z,3.90
2023-02-19T03:07:59.788Z,4.00
2023-02-19T03:10:38.706Z,4.00
2023-02-19T03:13:26.854Z,4.00
2023-02-19T03:16:14.528Z,4.00
2023-02-19T03:19:05.457Z,4.00
2023-02-19T03:21:40.189Z,3.90
2023-02-19T03:24:27.832Z,3.90
2023-02-19T03:27:00.172Z,3.90
2023-02-19T03:29:38.705Z,3.90
2023-02-19T03:32:15.903Z,3.90
2023-02-19T03:34:55.623Z,3.80
2023-02-19T03:37:32.943Z,3.80
2023-02-19T03:40:05.226Z,3.80
2023-02-19T03:42:44.041Z,3.80
2023-02-19T03:45:36.448Z,3.80
2023-02-19T03:48:27.870Z,3.70
2023-02-19T03:51:12.476Z,3.80
2023-02-19T03:53:55.526Z,3.70
2023-02-19T03:56:31.887Z,3.70
2023-02-19T03:59:08.741Z,3.70
2023-02-19T04:01:45.581Z,3.70
2023-02-19T04:04:21.722Z,3.60
2023-02-19T04:06:58.454Z,3.60
2023-02-19T04:09:39.017Z,3.60
2023-02-19T04:12:16.172Z,3.60
2023-02-19T04:14:54.735Z,3.50
2023-02-19T04:17:30.994Z,3.50
2023-02-19T04:20:04.150Z,3.50
2023-02-19T04:22:39.534Z,3.50
2023-02-19T04:25:12.021Z,3.50
2023-02-19T04:27:43.606Z,3.60
2023-02-19T04:30:17.325Z,3.60
2023-02-19T04:32:48.708Z,3.60
2023-02-19T04:35:20.130Z,3.60
2023-02-19T04:37:54.015Z,3.60
2023-02-19T04:40:24.975Z,3.60
2023-02-19T04:42:56.429Z,3.60
2023-02-19T04:45:27.377Z,3.70
2023-02-19T04:48:00.410Z,3.60
2023-02-19T04:50:31.445Z,3.70
2023-02-19T04:53:05.331Z,3.70
2023-02-19T04:55:39.307Z,3.70
2023-02-19T04:58:10.562Z,3.70
2023-02-19T05:00:41.108Z,3.70
2023-02-19T05:03:12.507Z,3.70
2023-02-19T05:05:43.647Z,3.70
2023-02-19T05:08:17.592Z,3.70
2023-02-19T05:10:48.713Z,3.70
2023-02-19T05:13:20.084Z,3.80
2023-02-19T05:15:58.982Z,3.80
2023-02-19T05:18:30.934Z,3.80
2023-02-19T05:21:02.616Z,3.80
2023-02-19T05:23:36.906Z,3.80
2023-02-19T05:26:11.947Z,3.80
2023-02-19T05:28:43.235Z,3.80
2023-02-19T05:31:15.681Z,3.70
2023-02-19T05:33:51.264Z,3.80
2023-02-19T05:36:24.197Z,3.70
2023-02-19T05:38:59.667Z,3.80
2023-02-19T05:41:31.993Z,3.70
2023-02-19T05:44:03.387Z,3.70
2023-02-19T05:46:34.437Z,3.70
2023-02-19T05:49:06.015Z,3.70
2023-02-19T05:51:36.954Z,3.70
2023-02-19T05:54:10.828Z,3.70
2023-02-19T05:56:44.384Z,3.70
2023-02-19T05:59:19.877Z,3.70
2023-02-19T06:01:53.453Z,3.70
2023-02-19T06:04:25.013Z,3.70
2023-02-19T06:06:55.929Z,3.60
2023-02-19T06:09:29.946Z,3.60
2023-02-19T06:12:00.794Z,3.60
2023-02-19T06:14:32.067Z,3.60
2023-02-19T06:17:02.668Z,3.60
2023-02-19T06:19:34.016Z,3.60
2023-02-19T06:22:05.060Z,3.60
2023-02-19T06:24:40.416Z,3.60
2023-02-19T06:27:12.266Z,3.70
2023-02-19T06:29:45.454Z,3.60
2023-02-19T06:32:16.860Z,3.60
2023-02-19T06:34:48.804Z,3.70
2023-02-19T06:37:19.894Z,3.60
2023-02-19T06:39:54.081Z,3.60
2023-02-19T06:42:26.107Z,3.70
2023-02-19T06:44:57.410Z,3.60
2023-02-19T06:47:28.122Z,3.70
2023-02-19T06:50:00.938Z,3.70
2023-02-19T06:52:31.860Z,3.70
2023-02-19T06:55:06.121Z,3.70
2023-02-19T06:57:37.531Z,3.70
2023-02-19T07:00:10.293Z,3.70
2023-02-19T07:02:41.408Z,3.70
2023-02-19T07:05:12.963Z,3.70
2023-02-19T07:07:49.162Z,3.80
2023-02-19T07:10:23.543Z,3.70
2023-02-19T07:12:54.535Z,3.80
2023-02-19T07:15:25.918Z,3.80
2023-02-19T07:17:56.784Z,3.80
2023-02-19T07:20:28.087Z,3.80
2023-02-19T07:23:00.196Z,3.80
2023-02-19T07:25:35.224Z,3.80
2023-02-19T07:28:06.850Z,3.90
2023-02-19T07:30:38.679Z,3.80
2023-02-19T07:33:10.636Z,3.90
2023-02-19T07:35:48.008Z,3.90
2023-02-19T07:38:20.131Z,3.90
2023-02-19T07:40:58.951Z,3.90
2023-02-19T07:43:32.731Z,4.00
2023-02-19T07:46:06.519Z,4.00
2023-02-19T07:48:38.449Z,4.00
2023-02-19T07:51:12.263Z,4.00
2023-02-19T07:53:43.501Z,4.00
2023-02-19T07:56:17.568Z,4.00
2023-02-19T07:58:49.206Z,4.00
2023-02-19T08:01:46.180Z,4.00
2023-02-19T08:04:16.501Z,4.10
2023-02-19T08:06:47.747Z,4.10
2023-02-19T08:09:18.308Z,4.20
2023-02-19T08:12:04.792Z,4.20
2023-02-19T08:14:36.003Z,4.30
2023-02-19T08:17:08.232Z,4.30
2023-02-19T08:19:38.798Z,4.30
2023-02-19T08:22:10.038Z,4.40
2023-02-19T08:24:43.251Z,4.40
2023-02-19T08:27:18.052Z,4.50
2023-02-19T08:29:49.056Z,4.50
2023-02-19T08:32:20.369Z,4.50
2023-02-19T08:34:51.301Z,4.50
2023-02-19T08:37:23.338Z,4.60
2023-02-19T08:39:54.500Z,4.60
2023-02-19T08:42:28.845Z,4.60
2023-02-19T08:45:00.132Z,4.60
2023-02-19T08:47:33.275Z,4.60
2023-02-19T08:50:05.363Z,4.60
2023-02-19T08:52:37.433Z,4.60
2023-02-19T08:55:09.939Z,4.70
2023-02-19T08:57:44.901Z,4.70
2023-02-19T09:00:17.470Z,4.70
2023-02-19T09:02:49.047Z,4.70
2023-02-19T09:05:20.935Z,4.70
2023-02-19T09:07:53.169Z,4.70
2023-02-19T09:10:25.443Z,4.70
2023-02-19T09:12:59.674Z,4.60
2023-02-19T09:15:30.754Z,4.60
2023-02-19T09:18:02.142Z,4.60
2023-02-19T09:20:33.231Z,4.60
2023-02-19T09:23:04.911Z,4.60
2023-02-19T09:25:37.008Z,4.60
2023-02-19T09:28:11.373Z,4.50
2023-02-19T09:30:42.448Z,4.60
2023-02-19T09:33:13.785Z,4.60
2023-02-19T09:35:47.949Z,4.60
2023-02-19T09:38:19.270Z,4.70
2023-02-19T09:40:49.956Z,4.70
2023-02-19T09:43:26.932Z,4.70
2023-02-19T09:46:07.413Z,4.70
2023-02-19T09:48:38.930Z,4.70
2023-02-19T09:51:13.974Z,4.80
2023-02-19T09:53:50.523Z,4.90
2023-02-19T09:56:21.522Z,5.00
2023-02-19T09:58:57.505Z,5.10
2023-02-19T10:01:31.820Z,5.20
2023-02-19T10:04:03.373Z,5.30
2023-02-19T10:06:36.597Z,5.30
2023-02-19T10:09:25.780Z,5.40
2023-02-19T10:12:01.423Z,5.40
2023-02-19T10:14:42.961Z,5.50
2023-02-19T10:17:20.626Z,5.50
2023-02-19T10:19:52.044Z,5.50
2023-02-19T10:22:23.588Z,5.50
2023-02-19T10:24:57.291Z,5.50
2023-02-19T10:27:32.971Z,5.50
2023-02-19T10:30:08.844Z,5.40
2023-02-19T10:32:42.428Z,5.40
2023-02-19T10:35:16.346Z,5.30
2023-02-19T10:37:48.595Z,5.40
2023-02-19T10:40:22.005Z,5.40
2023-02-19T10:42:55.637Z,5.40
2023-02-19T10:45:37.185Z,5.40
2023-02-19T10:48:10.583Z,5.40
2023-02-19T10:50:47.291Z,5.40
2023-02-19T10:53:26.112Z,5.40
2023-02-19T10:56:11.222Z,5.40
2023-02-19T10:58:45.018Z,5.30
2023-02-19T11:01:23.638Z,5.40
2023-02-19T11:03:55.763Z,5.30
2023-02-19T11:06:30.393Z,5.30
2023-02-19T11:09:03.174Z,5.40
2023-02-19T11:11:39.476Z,5.40
2023-02-19T11:14:19.882Z,5.50
2023-02-19T11:16:56.672Z,5.50
2023-02-19T11:19:32.795Z,5.70
2023-02-19T11:22:05.543Z,5.70
2023-02-19T11:24:40.777Z,5.80
2023-02-19T11:27:22.509Z,5.80
2023-02-19T11:29:53.514Z,5.80
2023-02-19T11:32:32.710Z,5.90
2023-02-19T11:35:27.998Z,5.90
2023-02-19T11:38:02.729Z,5.90
2023-02-19T11:40:43.159Z,6.00
2023-02-19T11:43:32.447Z,6.00
2023-02-19T11:46:09.849Z,5.90
2023-02-19T11:48:58.877Z,5.90
2023-02-19T11:51:38.534Z,6.00
2023-02-19T11:54:32.097Z,6.00
2023-02-19T11:57:12.570Z,6.00
2023-02-19T11:59:51.177Z,6.00
2023-02-19T12:02:38.604Z,6.10
2023-02-19T12:05:35.056Z,6.10
2023-02-19T12:08:22.896Z,6.10
2023-02-19T12:11:13.083Z,6.20
2023-02-19T12:14:20.164Z,6.30
2023-02-19T12:16:57.969Z,6.50
2023-02-19T12:19:46.542Z,6.40
2023-02-19T12:22:32.228Z,6.40
2023-02-19T12:25:29.074Z,6.30
2023-02-19T12:28:25.376Z,6.30
2023-02-19T12:31:33.065Z,6.30
2023-02-19T12:34:19.368Z,6.30
2023-02-19T12:37:03.533Z,6.30
2023-02-19T12:39:48.888Z,6.30
2023-02-19T12:42:31.474Z,6.20
2023-02-19T12:45:06.329Z,6.20
2023-02-19T12:47:42.540Z,6.20
2023-02-19T12:50:23.371Z,6.20
2023-02-19T12:52:58.347Z,6.20
2023-02-19T12:55:37.539Z,6.30
2023-02-19T12:58:14.092Z,6.40
2023-02-19T13:00:51.157Z,6.40
2023-02-19T13:03:31.071Z,6.50
2023-02-19T13:06:12.687Z,6.40
2023-02-19T13:09:05.307Z,6.30
2023-02-19T13:11:46.901Z,6.40
2023-02-19T13:14:24.300Z,6.30
2023-02-19T13:17:00.549Z,6.30
2023-02-19T13:19:32.202Z,6.30
2023-02-19T13:22:22.695Z,6.20
2023-02-19T13:24:55.284Z,6.10
2023-02-19T13:27:45.116Z,6.10
2023-02-19T13:30:33.606Z,6.10
2023-02-19T13:33:17.924Z,6.10
2023-02-19T13:36:19.227Z,6.10
2023-02-19T13:38:53.128Z,6.00
2023-02-19T13:41:30.649Z,5.90
2023-02-19T13:44:08.434Z,5.80
2023-02-19T13:46:44.069Z,5.70
2023-02-19T13:49:47.948Z,5.60
2023-02-19T13:52:43.827Z,5.50
2023-02-19T13:55:46.938Z,5.40
2023-02-19T13:58:47.832Z,5.40
2023-02-19T14:01:21.412Z,5.40
2023-02-19T14:03:57.759Z,5.30
2023-02-19T14:06:29.469Z,5.20
2023-02-19T14:09:01.675Z,5.20
2023-02-19T14:12:14.990Z,5.10
2023-02-19T14:14:47.762Z,5.10
2023-02-19T14:17:40.273Z,5.00
2023-02-19T14:20:40.925Z,5.00
2023-02-19T14:23:25.784Z,5.00
2023-02-19T14:26:01.443Z,4.90
2023-02-19T14:28:39.537Z,4.80
2023-02-19T14:31:30.021Z,4.80
2023-02-19T14:34:08.009Z,4.80
2023-02-19T14:36:50.546Z,4.70
2023-02-19T14:39:25.253Z,4.70
2023-02-19T14:41:59.894Z,4.70
2023-02-19T14:44:33.704Z,4.70
2023-02-19T14:47:09.701Z,4.80
2023-02-19T14:49:48.872Z,4.80
2023-02-19T14:52:25.041Z,4.80
2023-02-19T14:55:02.414Z,4.80
2023-02-19T14:57:35.956Z,4.80
2023-02-19T15:00:26.405Z,4.80
2023-02-19T15:03:00.343Z,4.80
2023-02-19T15:05:36.861Z,4.80
2023-02-19T15:08:12.995Z,4.80
2023-02-19T15:10:46.623Z,4.80
2023-02-19T15:13:23.250Z,4.80
2023-02-19T15:15:55.505Z,4.80
2023-02-19T15:18:35.883Z,4.80
2023-02-19T15:21:11.121Z,4.70
2023-02-19T15:23:45.948Z,4.70
2023-02-19T15:26:24.530Z,4.70
2023-02-19T15:29:03.207Z,4.70
2023-02-19T15:31:34.789Z,4.60
2023-02-19T15:34:05.821Z,4.60
2023-02-19T15:36:39.740Z,4.50
2023-02-19T15:39:10.812Z,4.50
2023-02-19T15:41:43.115Z,4.50
2023-02-19T15:44:31.118Z,4.40
2023-02-19T15:47:08.286Z,4.30
2023-02-19T15:49:48.036Z,4.30
2023-02-19T15:52:30.633Z,4.20
2023-02-19T15:55:06.613Z,4.20
2023-02-19T15:57:43.829Z,4.10
2023-02-19T16:00:20.367Z,4.10
2023-02-19T16:02:52.538Z,4.00
2023-02-19T16:05:30.453Z,3.90
2023-02-19T16:08:21.771Z,3.90
2023-02-19T16:11:00.780Z,3.80
2023-02-19T16:13:34.467Z,3.80
2023-02-19T16:16:16.495Z,3.70
2023-02-19T16:18:49.935Z,3.70
2023-02-19T16:21:24.847Z,3.70
2023-02-19T16:24:06.858Z,3.60
2023-02-19T16:26:43.478Z,3.60
2023-02-19T16:29:22.751Z,3.60
2023-02-19T16:31:55.758Z,3.50
2023-02-19T16:34:36.629Z,3.50
2023-02-19T16:37:28.420Z,3.40
2023-02-19T16:40:24.766Z,3.40
2023-02-19T16:43:29.462Z,3.40
2023-02-19T16:46:02.179Z,3.30
2023-02-19T16:48:33.321Z,3.30
2023-02-19T16:51:04.683Z,3.30
2023-02-19T16:53:36.358Z,3.20
2023-02-19T16:56:16.740Z,3.20
2023-02-19T16:58:47.984Z,3.20
2023-02-19T17:01:19.294Z,3.20
2023-02-19T17:03:50.212Z,3.20
2023-02-19T17:06:21.730Z,3.20
2023-02-19T17:08:52.645Z,3.10
2023-02-19T17:11:27.420Z,3.10
2023-02-19T17:13:58.364Z,3.10
2023-02-19T17:16:34.517Z,3.10
2023-02-19T17:19:07.696Z,3.10
2023-02-19T17:21:39.133Z,3.10
2023-02-19T17:24:11.450Z,3.10
2023-02-19T17:26:45.391Z,3.10
2023-02-19T17:29:18.755Z,3.10
2023-02-19T17:31:51.051Z,3.00
2023-02-19T17:34:23.368Z,3.00
2023-02-19T17:36:54.765Z,3.00
2023-02-19T17:39:27.005Z,3.00
2023-02-19T17:42:02.221Z,3.00
2023-02-19T17:44:33.423Z,3.00
2023-02-19T17:47:05.384Z,2.90
2023-02-19T17:49:36.606Z,2.90
2023-02-19T17:52:09.804Z,2.90
2023-02-19T17:54:40.915Z,2.80
2023-02-19T17:57:14.923Z,2.80
2023-02-19T17:59:45.911Z,2.80
2023-02-19T18:02:18.267Z,2.70
2023-02-19T18:04:51.042Z,2.70
2023-02-19T18:07:22.776Z,2.70
2023-02-19T18:09:54.144Z,2.60
2023-02-19T18:12:28.753Z,2.60
2023-02-19T18:14:59.879Z,2.60
2023-02-19T18:17:31.672Z,2.60
2023-02-19T18:20:04.662Z,2.50
2023-02-19T18:22:36.306Z,2.50
2023-02-19T18:25:08.192Z,2.50
2023-02-19T18:27:42.659Z,2.40
2023-02-19T18:30:17.049Z,2.40
2023-02-19T18:32:50.739Z,2.40
2023-02-19T18:35:23.809Z,2.40
2023-02-19T18:37:56.603Z,2.40
2023-02-19T18:40:29.152Z,2.40
2023-02-19T18:43:03.495Z,2.40
2023-02-19T18:45:37.434Z,2.30
2023-02-19T18:48:10.097Z,2.30
2023-02-19T18:50:41.233Z,2.30
2023-02-19T18:53:14.227Z,2.30
2023-02-19T18:55:45.276Z,2.30
2023-02-19T18:58:21.288Z,2.20
2023-02-19T19:00:52.849Z,2.20
2023-02-19T19:03:27.226Z,2.20
2023-02-19T19:05:58.677Z,2.20
2023-02-19T19:08:30.807Z,2.20
2023-02-19T19:11:04.079Z,2.20
2023-02-19T19:13:38.678Z,2.20
2023-02-19T19:16:10.037Z,2.20
2023-02-19T19:18:43.905Z,2.20
2023-02-19T19:21:18.643Z,2.20
2023-02-19T19:23:50.739Z,2.20
2023-02-19T19:26:21.909Z,2.20
2023-02-19T19:28:56.134Z,2.20
2023-02-19T19:31:28.198Z,2.20
2023-02-19T19:33:59.633Z,2.20
2023-02-19T19:36:33.679Z,2.10
2023-02-19T19:39:09.834Z,2.20
2023-02-19T19:41:41.013Z,2.10
2023-02-19T19:44:16.063Z,2.10
2023-02-19T19:46:48.964Z,2.10
2023-02-19T19:49:21.714Z,2.10
2023-02-19T19:51:53.031Z,2.10
2023-02-19T19:54:24.518Z,2.20
2023-02-19T19:56:57.883Z,2.10
2023-02-19T19:59:32.003Z,2.10
2023-02-19T20:02:03.487Z,2.10
2023-02-19T20:04:35.826Z,2.10
2023-02-19T20:07:06.916Z,2.10
2023-02-19T20:09:38.359Z,2.10
2023-02-19T20:12:11.181Z,2.00
2023-02-19T20:14:47.577Z,2.10
2023-02-19T20:17:19.059Z,2.10
2023-02-19T20:19:51.571Z,2.10
2023-02-19T20:22:22.934Z,2.00
2023-02-19T20:24:55.083Z,2.00
2023-02-19T20:27:27.308Z,2.00
2023-02-19T20:30:01.598Z,2.00
2023-02-19T20:32:33.254Z,2.00
2023-02-19T20:35:05.595Z,2.00
2023-02-19T20:37:37.679Z,1.90
2023-02-19T20:40:11.461Z,2.00
2023-02-19T20:42:42.846Z,1.90
2023-02-19T20:45:18.693Z,1.90
2023-02-19T20:47:49.819Z,1.90
2023-02-19T20:50:23.564Z,1.90
2023-02-19T20:52:55.996Z,1.90
2023-02-19T20:55:27.359Z,1.80
2023-02-19T20:57:58.478Z,1.80
2023-02-19T21:00:32.506Z,1.80
2023-02-19T21:03:03.526Z,1.80
2023-02-19T21:05:34.985Z,1.80
2023-02-19T21:08:05.553Z,1.70
2023-02-19T21:10:37.035Z,1.80
2023-02-19T21:13:07.910Z,1.70
2023-02-19T21:15:41.751Z,1.70
2023-02-19T21:18:12.680Z,1.70
2023-02-19T21:20:44.036Z,1.70
2023-02-19T21:23:16.347Z,1.70
2023-02-19T21:25:49.292Z,1.70
2023-02-19T21:28:20.398Z,1.70
2023-02-19T21:30:55.613Z,1.70
2023-02-19T21:33:26.656Z,1.70
2023-02-19T21:35:58.062Z,1.60
2023-02-19T21:38:29.559Z,1.60
2023-02-19T21:41:03.192Z,1.60
2023-02-19T21:43:34.472Z,1.60
2023-02-19T21:46:08.887Z,1.60
2023-02-19T21:48:39.792Z,1.60
2023-02-19T21:51:11.108Z,1.60
2023-02-19T21:53:42.387Z,1.60
2023-02-19T21:56:13.953Z,1.60
2023-02-19T21:58:47.151Z,1.60
2023-02-19T22:01:23.033Z,1.50
2023-02-19T22:03:55.156Z,1.50
2023-02-19T22:06:29.166Z,1.50
2023-02-19T22:09:01.031Z,1.50
2023-02-19T22:11:32.893Z,1.50
2023-02-19T22:14:03.771Z,1.50
2023-02-19T22:16:37.816Z,1.50
2023-02-19T22:19:08.735Z,1.50
2023-02-19T22:21:44.461Z,1.40
2023-02-19T22:24:22.417Z,1.40
2023-02-19T22:26:58.061Z,1.40
2023-02-19T22:29:29.158Z,1.50
2023-02-19T22:32:03.168Z,1.50
2023-02-19T22:34:34.063Z,1.50
2023-02-19T22:37:05.818Z,1.50
2023-02-19T22:39:36.767Z,1.50
2023-02-19T22:42:12.293Z,1.50
2023-02-19T22:44:45.895Z,1.60
2023-02-19T22:47:22.205Z,1.60
2023-02-19T22:49:53.124Z,1.60
2023-02-19T22:52:28.197Z,1.70
2023-02-19T22:55:00.179Z,1.70
2023-02-19T22:57:31.485Z,1.80
2023-02-19T23:00:02.453Z,1.80
2023-02-19T23:02:37.842Z,1.80
2023-02-19T23:05:09.296Z,1.90
2023-02-19T23:07:40.495Z,1.90
2023-02-19T23:10:11.651Z,1.90
2023-02-19T23:12:44.014Z,1.90
2023-02-19T23:15:15.547Z,1.90
2023-02-19T23:17:49.547Z,1.90
2023-02-19T23:20:20.595Z,2.00
2023-02-19T23:22:51.864Z,2.00
2023-02-19T23:25:23.486Z,2.00
2023-02-19T23:27:55.488Z,2.00
2023-02-19T23:30:27.144Z,2.10
2023-02-19T23:33:01.111Z,2.10
2023-02-19T23:35:33.041Z,2.20
2023-02-19T23:38:04.301Z,2.10
2023-02-19T23:40:35.311Z,2.20
2023-02-19T23:43:07.112Z,2.20
2023-02-19T23:45:37.976Z,2.20
2023-02-19T23:48:11.793Z,2.20
2023-02-19T23:50:43.156Z,2.20
2023-02-19T23:53:14.600Z,2.20
2023-02-19T23:55:46.920Z,2.30
2023-02-19T23:58:18.527Z,2.30
